Time,TemperatureF,DewpointF,PressureIn,WindDirection,WindDirectionDegrees,WindSpeedMPH,WindSpeedGustMPH,Humidity,HourlyPrecipIn,Conditions,Clouds,dailyrainin,SoftwareType,DateUTC
2013-01-13 00:02:00,33.0,-99.9,30.45,SE,131,4.0,4.0,-999,-99.99,,,-99.99,,2013-01-13 08:02:00,
2013-01-13 00:12:00,32.0,-99.9,30.45,ESE,116,4.0,5.0,-999,-99.99,,,-99.99,,2013-01-13 08:12:00,
2013-01-13 00:22:00,32.0,-99.9,30.45,ESE,111,4.0,5.0,-999,-99.99,,,-99.99,,2013-01-13 08:22:00,
2013-01-13 00:32:00,-999.0,-99.9,30.45,ESE,119,5.0,7.0,-999,-99.99,,,-99.99,,2013-01-13 08:32:00,
2013-01-13 00:42:00,-999.0,-99.9,30.45,ESE,102,4.0,7.0,-999,-99.99,,,-99.99,,2013-01-13 08:42:00,
2013-01-13 00:53:00,32.0,-99.9,30.45,ESE,103,3.0,6.0,-999,-99.99,,,-99.99,,2013-01-13 08:53:00,
2013-01-13 01:02:00,-999.0,-99.9,30.45,ESE,122,4.0,6.0,-999,-99.99,,,-99.99,,2013-01-13 09:02:00,
2013-01-13 01:12:00,-999.0,-99.9,30.46,South,177,6.0,8.0,-999,-99.99,,,-99.99,,2013-01-13 09:12:00,
2013-01-13 01:22:00,30.0,-99.9,30.46,SSE,157,4.0,7.0,-999,-99.99,,,-99.99,,2013-01-13 09:22:00,
2013-01-13 01:32:00,-999.0,-99.9,30.46,ESE,118,5.0,6.0,-999,-99.99,,,-99.99,,2013-01-13 09:32:00,
2013-01-13 01:43:00,30.0,-99.9,30.46,SE,136,4.0,6.0,-999,-99.99,,,-99.99,,2013-01-13 09:43:00,
2013-01-13 01:53:00,-999.0,-99.9,30.46,SE,133,5.0,6.0,-999,-99.99,,,-99.99,,2013-01-13 09:53:00,
2013-01-13 02:03:00,-999.0,-99.9,30.46,South,180,3.0,4.0,-999,-99.99,,,-99.99,,2013-01-13 10:03:00,
2013-01-13 02:12:00,-999.0,-99.9,30.46,South,170,5.0,6.0,-999,-99.99,,,-99.99,,2013-01-13 10:12:00,
2013-01-13 02:22:00,29.0,-99.9,30.46,South,169,5.0,6.0,-999,-99.99,,,-99.99,,2013-01-13 10:22:00,
2013-01-13 02:33:00,-999.0,-99.9,30.46,SSE,166,3.0,4.0,-999,-99.99,,,-99.99,,2013-01-13 10:33:00,
2013-01-13 02:42:00,-999.0,-99.9,30.46,SSE,156,3.0,4.0,-999,-99.99,,,-99.99,,2013-01-13 10:42:00,
2013-01-13 02:53:00,30.0,-99.9,30.46,SE,144,4.0,5.0,-999,-99.99,,,-99.99,,2013-01-13 10:53:00,
2013-01-13 03:02:00,-999.0,-99.9,30.46,ESE,119,4.0,5.0,-999,-99.99,,,-99.99,,2013-01-13 11:02:00,
2013-01-13 03:12:00,30.0,-99.9,30.46,ESE,118,5.0,6.0,-999,-99.99,,,-99.99,,2013-01-13 11:12:00,
2013-01-13 03:22:00,-999.0,-99.9,30.46,SE,128,4.0,5.0,-999,-99.99,,,-99.99,,2013-01-13 11:22:00,
2013-01-13 03:33:00,-999.0,-99.9,30.46,ESE,114,4.0,7.0,-999,-99.99,,,-99.99,,2013-01-13 11:33:00,
2013-01-13 03:43:00,-999.0,-99.9,30.46,ESE,120,7.0,9.0,-999,-99.99,,,-99.99,,2013-01-13 11:43:00,
2013-01-13 03:53:00,30.0,-99.9,30.46,ESE,117,6.0,8.0,-999,-99.99,,,-99.99,,2013-01-13 11:53:00,
2013-01-13 04:03:00,-999.0,-99.9,30.46,SE,126,6.0,8.0,-999,-99.99,,,-99.99,,2013-01-13 12:03:00,
2013-01-13 04:12:00,-999.0,-99.9,30.46,SE,145,6.0,8.0,-999,-99.99,,,-99.99,,2013-01-13 12:12:00,
2013-01-13 04:22:00,29.0,-99.9,30.45,SSE,165,6.0,7.0,-999,-99.99,,,-99.99,,2013-01-13 12:22:00,
2013-01-13 04:33:00,-999.0,-99.9,30.45,South,181,2.0,4.0,-999,-99.99,,,-99.99,,2013-01-13 12:33:00,
2013-01-13 04:42:00,-999.0,-99.9,30.45,SSE,154,2.0,3.0,-999,-99.99,,,-99.99,,2013-01-13 12:42:00,
2013-01-13 04:53:00,29.0,-99.9,30.45,South,182,3.0,4.0,-999,-99.99,,,-99.99,,2013-01-13 12:53:00,
2013-01-13 05:03:00,-999.0,-99.9,30.45,SSE,147,3.0,5.0,-999,-99.99,,,-99.99,,2013-01-13 13:03:00,
2013-01-13 05:12:00,-999.0,-99.9,30.45,SSE,147,3.0,4.0,-999,-99.99,,,-99.99,,2013-01-13 13:12:00,
2013-01-13 05:22:00,-999.0,-99.9,30.45,ESE,123,4.0,5.0,-999,-99.99,,,-99.99,,2013-01-13 13:22:00,
2013-01-13 05:33:00,-999.0,-99.9,30.46,SSE,161,2.0,7.0,-999,-99.99,,,-99.99,,2013-01-13 13:33:00,
2013-01-13 05:43:00,-999.0,-99.9,30.45,SE,137,4.0,4.0,-999,-99.99,,,-99.99,,2013-01-13 13:43:00,
2013-01-13 05:53:00,29.0,-99.9,30.46,SE,127,4.0,5.0,-999,-99.99,,,-99.99,,2013-01-13 13:53:00,
2013-01-13 06:03:00,-999.0,-99.9,30.46,ESE,103,2.0,5.0,-999,-99.99,,,-99.99,,2013-01-13 14:03:00,
2013-01-13 06:13:00,-999.0,-99.9,30.46,ESE,114,3.0,4.0,-999,-99.99,,,-99.99,,2013-01-13 14:13:00,
2013-01-13 06:23:00,30.0,-99.9,30.45,ESE,119,4.0,4.0,-999,-99.99,,,-99.99,,2013-01-13 14:23:00,
2013-01-13 06:33:00,-999.0,-99.9,30.45,ESE,122,4.0,5.0,-999,-99.99,,,-99.99,,2013-01-13 14:33:00,
2013-01-13 06:43:00,29.0,-99.9,30.46,SE,125,5.0,6.0,-999,-99.99,,,-99.99,,2013-01-13 14:43:00,
2013-01-13 06:53:00,-999.0,-99.9,30.47,South,180,5.0,7.0,-999,-99.99,,,-99.99,,2013-01-13 14:53:00,
2013-01-13 07:03:00,-999.0,-99.9,30.47,SSE,166,5.0,6.0,-999,-99.99,,,-99.99,,2013-01-13 15:03:00,
2013-01-13 07:13:00,-999.0,-99.9,30.47,South,172,4.0,6.0,-999,-99.99,,,-99.99,,2013-01-13 15:13:00,
2013-01-13 07:23:00,27.0,-99.9,30.47,South,171,4.0,6.0,-999,-99.99,,,-99.99,,2013-01-13 15:23:00,
2013-01-13 07:33:00,-999.0,-99.9,30.48,South,173,4.0,6.0,-999,-99.99,,,-99.99,,2013-01-13 15:33:00,
2013-01-13 07:43:00,-999.0,-99.9,30.48,SSE,162,5.0,6.0,-999,-99.99,,,-99.99,,2013-01-13 15:43:00,
2013-01-13 07:53:00,28.0,-99.9,30.48,South,169,6.0,7.0,-999,-99.99,,,-99.99,,2013-01-13 15:53:00,
2013-01-13 08:04:00,-999.0,-99.9,30.48,SSE,164,5.0,7.0,-999,-99.99,,,-99.99,,2013-01-13 16:04:00,
2013-01-13 08:13:00,28.0,-99.9,30.49,South,178,4.0,6.0,-999,-99.99,,,-99.99,,2013-01-13 16:13:00,
2013-01-13 08:23:00,-999.0,-99.9,30.48,South,184,4.0,6.0,-999,-99.99,,,-99.99,,2013-01-13 16:23:00,
2013-01-13 08:33:00,-999.0,-99.9,30.48,South,183,4.0,6.0,-999,-99.99,,,-99.99,,2013-01-13 16:33:00,
2013-01-13 08:43:00,-999.0,-99.9,30.49,South,184,5.0,6.0,-999,-99.99,,,-99.99,,2013-01-13 16:43:00,
2013-01-13 08:53:00,-999.0,-99.9,30.49,SSW,194,5.0,7.0,-999,-99.99,,,-99.99,,2013-01-13 16:53:00,
2013-01-13 09:03:00,-999.0,-99.9,30.49,South,175,4.0,6.0,-999,-99.99,,,-99.99,,2013-01-13 17:03:00,
2013-01-13 09:13:00,-999.0,-99.9,30.49,South,177,4.0,6.0,-999,-99.99,,,-99.99,,2013-01-13 17:13:00,
2013-01-13 09:22:00,28.0,-99.9,30.49,SSE,168,4.0,6.0,-999,-99.99,,,-99.99,,2013-01-13 17:22:00,
2013-01-13 09:33:00,-999.0,-99.9,30.49,SSE,166,5.0,6.0,-999,-99.99,,,-99.99,,2013-01-13 17:33:00,
2013-01-13 09:43:00,-999.0,-99.9,30.49,South,182,4.0,7.0,-999,-99.99,,,-99.99,,2013-01-13 17:43:00,
2013-01-13 09:53:00,-999.0,-99.9,30.49,SSW,202,4.0,7.0,-999,-99.99,,,-99.99,,2013-01-13 17:53:00,
2013-01-13 10:03:00,-999.0,-99.9,30.49,South,181,3.0,6.0,-999,-99.99,,,-99.99,,2013-01-13 18:03:00,
2013-01-13 10:12:00,-999.0,-99.9,30.50,SSE,162,5.0,6.0,-999,-99.99,,,-99.99,,2013-01-13 18:12:00,
2013-01-13 10:23:00,29.0,-99.9,30.50,SE,133,4.0,6.0,-999,-99.99,,,-99.99,,2013-01-13 18:23:00,
2013-01-13 10:33:00,-999.0,-99.9,30.50,South,169,3.0,5.0,-999,-99.99,,,-99.99,,2013-01-13 18:33:00,
2013-01-13 10:43:00,-999.0,-99.9,30.50,SSW,203,3.0,4.0,-999,-99.99,,,-99.99,,2013-01-13 18:43:00,
2013-01-13 10:53:00,32.0,-99.9,30.50,SSW,198,4.0,5.0,-999,-99.99,,,-99.99,,2013-01-13 18:53:00,
2013-01-13 11:03:00,-999.0,-99.9,30.50,South,180,2.0,5.0,-999,-99.99,,,-99.99,,2013-01-13 19:03:00,
2013-01-13 11:12:00,31.0,-99.9,30.50,South,182,3.0,5.0,-999,-99.99,,,-99.99,,2013-01-13 19:12:00,
2013-01-13 11:23:00,-999.0,-99.9,30.50,South,174,3.0,5.0,-999,-99.99,,,-99.99,,2013-01-13 19:23:00,
2013-01-13 11:33:00,33.0,-99.9,30.50,South,179,3.0,5.0,-999,-99.99,,,-99.99,,2013-01-13 19:33:00,
2013-01-13 11:43:00,33.0,-99.9,30.49,South,170,4.0,5.0,-999,-99.99,,,-99.99,,2013-01-13 19:43:00,
2013-01-13 11:53:00,34.0,-99.9,30.48,SSW,194,4.0,6.0,-999,-99.99,,,-99.99,,2013-01-13 19:53:00,
2013-01-13 12:03:00,34.0,-99.9,30.48,SSE,159,2.0,4.0,-999,-99.99,,,-99.99,,2013-01-13 20:03:00,
2013-01-13 12:12:00,35.0,-99.9,30.48,SSW,194,3.0,4.0,-999,-99.99,,,-99.99,,2013-01-13 20:12:00,
2013-01-13 12:23:00,35.0,-99.9,30.48,SSW,198,4.0,5.0,-999,-99.99,,,-99.99,,2013-01-13 20:23:00,
2013-01-13 12:33:00,36.0,-99.9,30.48,SSE,166,2.0,3.0,-999,-99.99,,,-99.99,,2013-01-13 20:33:00,
2013-01-13 12:43:00,35.0,-99.9,30.48,WSW,245,4.0,6.0,-999,-99.99,,,-99.99,,2013-01-13 20:43:00,
2013-01-13 12:53:00,35.0,-99.9,30.48,West,264,3.0,5.0,-999,-99.99,,,-99.99,,2013-01-13 20:53:00,
2013-01-13 13:03:00,36.0,-99.9,30.48,West,267,2.0,3.0,-999,-99.99,,,-99.99,,2013-01-13 21:03:00,
2013-01-13 13:13:00,36.0,-99.9,30.47,SW,215,3.0,4.0,-999,-99.99,,,-99.99,,2013-01-13 21:13:00,
2013-01-13 13:23:00,36.0,-99.9,30.46,WSW,239,3.0,4.0,-999,-99.99,,,-99.99,,2013-01-13 21:23:00,
2013-01-13 13:33:00,36.0,-99.9,30.46,WSW,240,4.0,5.0,-999,-99.99,,,-99.99,,2013-01-13 21:33:00,
2013-01-13 13:43:00,36.0,-99.9,30.46,WSW,242,4.0,5.0,-999,-99.99,,,-99.99,,2013-01-13 21:43:00,
2013-01-13 13:53:00,36.0,-99.9,30.47,WSW,247,3.0,4.0,-999,-99.99,,,-99.99,,2013-01-13 21:53:00,
2013-01-13 14:03:00,37.0,-99.9,30.47,West,260,3.0,4.0,-999,-99.99,,,-99.99,,2013-01-13 22:03:00,
2013-01-13 14:13:00,36.0,-99.9,30.47,WSW,248,3.0,4.0,-999,-99.99,,,-99.99,,2013-01-13 22:13:00,
2013-01-13 14:23:00,37.0,-99.9,30.47,WSW,255,3.0,4.0,-999,-99.99,,,-99.99,,2013-01-13 22:23:00,
2013-01-13 14:33:00,36.0,-99.9,30.47,West,264,3.0,4.0,-999,-99.99,,,-99.99,,2013-01-13 22:33:00,
2013-01-13 14:43:00,37.0,-99.9,30.47,West,261,3.0,4.0,-999,-99.99,,,-99.99,,2013-01-13 22:43:00,
2013-01-13 14:53:00,36.0,-99.9,30.47,West,271,4.0,5.0,-999,-99.99,,,-99.99,,2013-01-13 22:53:00,
2013-01-13 15:03:00,36.0,-99.9,30.47,West,271,4.0,5.0,-999,-99.99,,,-99.99,,2013-01-13 23:03:00,
2013-01-13 15:12:00,36.0,-99.9,30.47,WSW,252,4.0,5.0,-999,-99.99,,,-99.99,,2013-01-13 23:12:00,
2013-01-13 15:23:00,37.0,-99.9,30.47,SW,227,3.0,5.0,-999,-99.99,,,-99.99,,2013-01-13 23:23:00,
2013-01-13 15:33:00,37.0,-99.9,30.47,SSW,192,2.0,4.0,-999,-99.99,,,-99.99,,2013-01-13 23:33:00,
2013-01-13 15:43:00,37.0,-99.9,30.47,SSW,200,2.0,3.0,-999,-99.99,,,-99.99,,2013-01-13 23:43:00,
2013-01-13 15:53:00,37.0,-99.9,30.46,West,265,2.0,3.0,-999,-99.99,,,-99.99,,2013-01-13 23:53:00,
2013-01-13 16:03:00,37.0,-99.9,30.47,WSW,252,3.0,4.0,-999,-99.99,,,-99.99,,2013-01-14 00:03:00,
2013-01-13 16:13:00,37.0,-99.9,30.47,West,268,3.0,4.0,-999,-99.99,,,-99.99,,2013-01-14 00:13:00,
2013-01-13 16:23:00,36.0,-99.9,30.47,WNW,289,2.0,4.0,-999,-99.99,,,-99.99,,2013-01-14 00:23:00,
2013-01-13 16:33:00,36.0,-99.9,30.47,WNW,289,2.0,4.0,-999,-99.99,,,-99.99,,2013-01-14 00:33:00,
2013-01-13 16:43:00,36.0,-99.9,30.47,WNW,289,2.0,4.0,-999,-99.99,,,-99.99,,2013-01-14 00:43:00,
2013-01-13 16:53:00,36.0,-99.9,30.47,WNW,289,2.0,4.0,-999,-99.99,,,-99.99,,2013-01-14 00:53:00,